Terminal Aerodrome Forecast
Issued by NWS

Home | Current Version | Previous Version | Text Only | Print | Product List | Glossary On
Versions: 1 2 3 4 5 6 7 8 9 10 11 12 13 14 15 16 17
000
FTUS42 KMLB 212300
TAFSUA
TAF
KSUA 212327Z 2200/2224 20005KT P6SM FEW025 SCT100 BKN250
     FM220200 00000KT P6SM SCT040 OVC150
     FM221400 32004KT P6SM FEW080 BKN250
     FM221700 03007KT P6SM FEW030 SCT100 BKN250=

USA.gov is the U.S. government's official web portal to all federal, state and local government web resources and services.